Time,TemperatureF,DewpointF,PressureIn,WindDirection,WindDirectionDegrees,WindSpeedMPH,WindSpeedGustMPH,Humidity,HourlyPrecipIn,Conditions,Clouds,dailyrainin,SoftwareType,DateUTC
2013-03-12 00:06:00,39.4,22.3,30.02,WNW,282,0.0,0.0,50,0.00,,---,0.00,VWS V14.00,2013-03-12 05:06:00,
2013-03-12 00:15:00,39.3,22.7,30.02,WNW,282,0.0,0.0,51,0.00,,---,0.00,VWS V14.00,2013-03-12 05:15:00,
2013-03-12 00:20:00,38.9,23.7,30.02,WNW,282,0.0,0.0,54,0.00,,---,0.00,VWS V14.00,2013-03-12 05:20:00,
2013-03-12 00:28:00,38.2,23.9,30.03,WNW,282,0.0,0.0,56,0.00,,---,0.00,VWS V14.00,2013-03-12 05:28:00,
2013-03-12 00:35:00,37.8,24.4,30.03,WNW,282,0.0,0.0,58,0.00,,---,0.00,VWS V14.00,2013-03-12 05:35:00,
2013-03-12 00:40:00,37.8,23.1,30.03,WNW,282,0.0,0.0,55,0.00,,---,0.00,VWS V14.00,2013-03-12 05:40:00,
2013-03-12 00:45:00,37.8,22.2,30.03,WNW,282,0.0,0.0,53,0.00,,---,0.00,VWS V14.00,2013-03-12 05:45:00,
2013-03-12 00:52:00,38.1,22.5,30.03,WNW,282,0.0,0.0,53,0.00,,---,0.00,VWS V14.00,2013-03-12 05:52:00,
2013-03-12 00:57:00,38.1,22.5,30.03,WNW,282,0.0,0.0,53,0.00,,---,0.00,VWS V14.00,2013-03-12 05:57:00,
2013-03-12 01:03:00,38.0,22.4,30.03,WNW,282,0.0,0.0,53,0.00,,---,0.00,VWS V14.00,2013-03-12 06:03:00,
2013-03-12 01:09:00,37.9,22.8,30.03,WNW,282,0.0,0.0,54,0.00,,---,0.00,VWS V14.00,2013-03-12 06:09:00,
2013-03-12 01:15:00,37.6,23.3,30.03,WNW,282,0.0,0.0,56,0.00,,---,0.00,VWS V14.00,2013-03-12 06:15:00,
2013-03-12 01:20:00,37.6,22.9,30.03,WNW,282,0.0,0.0,55,0.00,,---,0.00,VWS V14.00,2013-03-12 06:20:00,
2013-03-12 01:25:00,37.6,23.8,30.03,WNW,282,0.0,0.0,57,0.00,,---,0.00,VWS V14.00,2013-03-12 06:25:00,
2013-03-12 01:31:00,37.3,24.3,30.03,WNW,282,0.0,0.0,59,0.00,,---,0.00,VWS V14.00,2013-03-12 06:31:00,
2013-03-12 01:37:00,37.0,25.2,30.03,WNW,282,0.0,0.0,62,0.00,,---,0.00,VWS V14.00,2013-03-12 06:37:00,
2013-03-12 01:42:00,36.8,25.0,30.03,WNW,282,0.0,0.0,62,0.00,,---,0.00,VWS V14.00,2013-03-12 06:42:00,
2013-03-12 01:47:00,36.7,24.5,30.03,WNW,282,0.0,0.0,61,0.00,,---,0.00,VWS V14.00,2013-03-12 06:47:00,
2013-03-12 01:52:00,37.1,23.3,30.03,WNW,282,0.0,0.0,57,0.00,,---,0.00,VWS V14.00,2013-03-12 06:52:00,
2013-03-12 01:58:00,37.4,24.8,30.03,WNW,282,0.0,0.0,60,0.00,,---,0.00,VWS V14.00,2013-03-12 06:58:00,
2013-03-12 02:04:00,37.7,24.3,30.03,WNW,282,0.0,0.0,58,0.00,,---,0.00,VWS V14.00,2013-03-12 07:04:00,
2013-03-12 02:10:00,38.7,22.6,30.03,WNW,282,0.0,0.0,52,0.00,,---,0.00,VWS V14.00,2013-03-12 07:10:00,
2013-03-12 02:15:00,40.0,22.4,30.03,WNW,282,0.0,0.0,49,0.00,,---,0.00,VWS V14.00,2013-03-12 07:15:00,
2013-03-12 02:21:00,41.1,21.9,30.03,WNW,282,0.0,0.0,46,0.00,,---,0.00,VWS V14.00,2013-03-12 07:21:00,
2013-03-12 02:26:00,41.6,21.9,30.03,WNW,282,0.0,0.0,45,0.00,,---,0.00,VWS V14.00,2013-03-12 07:26:00,
2013-03-12 02:31:00,42.0,21.1,30.03,WNW,282,0.0,0.0,43,0.00,,---,0.00,VWS V14.00,2013-03-12 07:31:00,
2013-03-12 02:36:00,42.2,20.8,30.03,WNW,282,0.0,0.0,42,0.00,,---,0.00,VWS V14.00,2013-03-12 07:36:00,
2013-03-12 02:41:00,42.3,20.9,30.03,WNW,282,0.0,0.0,42,0.00,,---,0.00,VWS V14.00,2013-03-12 07:41:00,
2013-03-12 02:47:00,42.3,21.4,30.03,WNW,282,0.0,0.0,43,0.00,,---,0.00,VWS V14.00,2013-03-12 07:47:00,
2013-03-12 02:52:00,42.2,20.8,30.03,WNW,282,0.0,0.0,42,0.00,,---,0.00,VWS V14.00,2013-03-12 07:52:00,
2013-03-12 02:58:00,41.9,21.6,30.05,WNW,282,0.0,0.0,44,0.00,,---,0.00,VWS V14.00,2013-03-12 07:58:00,
2013-03-12 03:03:00,41.4,22.7,30.05,WNW,282,0.0,0.0,47,0.00,,---,0.00,VWS V14.00,2013-03-12 08:03:00,
2013-03-12 03:09:00,40.8,22.1,30.05,WNW,282,0.0,0.0,47,0.00,,---,0.00,VWS V14.00,2013-03-12 08:09:00,
2013-03-12 03:14:00,40.7,22.5,30.05,WNW,282,2.0,3.0,48,0.00,,---,0.00,VWS V14.00,2013-03-12 08:14:00,
2013-03-12 03:19:00,40.3,23.6,30.05,West,280,1.0,2.0,51,0.00,,---,0.00,VWS V14.00,2013-03-12 08:19:00,
2013-03-12 03:24:00,39.9,25.5,30.05,West,280,0.0,2.0,56,0.00,,---,0.00,VWS V14.00,2013-03-12 08:24:00,
2013-03-12 03:30:00,39.3,26.6,30.06,West,280,0.0,0.0,60,0.00,,---,0.00,VWS V14.00,2013-03-12 08:30:00,
2013-03-12 03:36:00,38.9,26.2,30.06,West,280,0.0,2.0,60,0.00,,---,0.00,VWS V14.00,2013-03-12 08:36:00,
2013-03-12 03:41:00,38.6,26.3,30.06,West,280,0.0,0.0,61,0.00,,---,0.00,VWS V14.00,2013-03-12 08:41:00,
2013-03-12 03:46:00,38.3,26.4,30.06,West,280,0.0,0.0,62,0.00,,---,0.00,VWS V14.00,2013-03-12 08:46:00,
2013-03-12 03:51:00,38.1,25.9,30.06,West,280,0.0,0.0,61,0.00,,---,0.00,VWS V14.00,2013-03-12 08:51:00,
2013-03-12 03:56:00,38.0,25.8,30.07,West,280,0.0,0.0,61,0.00,,---,0.00,VWS V14.00,2013-03-12 08:56:00,
2013-03-12 04:02:00,37.8,25.6,30.07,West,280,0.0,0.0,61,0.00,,---,0.00,VWS V14.00,2013-03-12 09:02:00,
2013-03-12 04:08:00,37.5,25.7,30.07,West,280,0.0,0.0,62,0.00,,---,0.00,VWS V14.00,2013-03-12 09:08:00,
2013-03-12 04:13:00,37.3,25.5,30.06,West,280,0.0,0.0,62,0.00,,---,0.00,VWS V14.00,2013-03-12 09:13:00,
2013-03-12 04:18:00,37.5,24.9,30.06,West,280,0.0,0.0,60,0.00,,---,0.00,VWS V14.00,2013-03-12 09:18:00,
2013-03-12 04:24:00,37.9,24.9,30.06,West,280,0.0,2.0,59,0.00,,---,0.00,VWS V14.00,2013-03-12 09:24:00,
2013-03-12 04:29:00,38.3,24.4,30.08,West,280,2.0,2.0,57,0.00,,---,0.00,VWS V14.00,2013-03-12 09:29:00,
2013-03-12 04:34:00,38.6,24.7,30.08,West,280,0.0,0.0,57,0.00,,---,0.00,VWS V14.00,2013-03-12 09:34:00,
2013-03-12 04:39:00,38.6,24.7,30.08,West,280,2.0,3.0,57,0.00,,---,0.00,VWS V14.00,2013-03-12 09:39:00,
2013-03-12 04:45:00,38.6,25.1,30.09,West,280,0.0,0.0,58,0.00,,---,0.00,VWS V14.00,2013-03-12 09:45:00,
2013-03-12 04:51:00,38.6,25.1,30.09,West,280,0.0,0.0,58,0.00,,---,0.00,VWS V14.00,2013-03-12 09:51:00,
2013-03-12 04:57:00,38.4,24.9,30.09,West,280,0.0,0.0,58,0.00,,---,0.00,VWS V14.00,2013-03-12 09:57:00,
2013-03-12 05:02:00,38.2,24.7,30.09,West,280,0.0,0.0,58,0.00,,---,0.00,VWS V14.00,2013-03-12 10:02:00,
2013-03-12 05:07:00,38.2,24.7,30.09,West,280,0.0,0.0,58,0.00,,---,0.00,VWS V14.00,2013-03-12 10:07:00,
2013-03-12 05:12:00,38.2,25.1,30.09,West,280,0.0,0.0,59,0.00,,---,0.00,VWS V14.00,2013-03-12 10:12:00,
2013-03-12 05:17:00,38.4,24.5,30.09,West,280,0.0,0.0,57,0.00,,---,0.00,VWS V14.00,2013-03-12 10:17:00,
2013-03-12 05:22:00,39.0,24.6,30.09,West,280,0.0,0.0,56,0.00,,---,0.00,VWS V14.00,2013-03-12 10:22:00,
2013-03-12 05:27:00,39.3,24.5,30.11,West,280,0.0,0.0,55,0.00,,---,0.00,VWS V14.00,2013-03-12 10:27:00,
2013-03-12 05:32:00,39.3,24.5,30.11,West,280,0.0,0.0,55,0.00,,---,0.00,VWS V14.00,2013-03-12 10:32:00,
2013-03-12 05:37:00,39.2,24.8,30.11,West,280,0.0,0.0,56,0.00,,---,0.00,VWS V14.00,2013-03-12 10:37:00,
2013-03-12 05:42:00,39.2,25.3,30.11,West,280,0.0,0.0,57,0.00,,---,0.00,VWS V14.00,2013-03-12 10:42:00,
2013-03-12 05:47:00,39.3,25.4,30.11,West,280,0.0,0.0,57,0.00,,---,0.00,VWS V14.00,2013-03-12 10:47:00,
2013-03-12 05:52:00,39.6,25.6,30.11,West,280,0.0,0.0,57,0.00,,---,0.00,VWS V14.00,2013-03-12 10:52:00,
2013-03-12 05:57:00,39.9,25.9,30.13,West,280,0.0,0.0,57,0.00,,---,0.00,VWS V14.00,2013-03-12 10:57:00,
2013-03-12 06:03:00,40.2,25.8,30.13,West,280,0.0,0.0,56,0.00,,---,0.00,VWS V14.00,2013-03-12 11:03:00,
2013-03-12 06:08:00,40.4,26.4,30.13,West,280,0.0,0.0,57,0.00,,---,0.00,VWS V14.00,2013-03-12 11:08:00,
2013-03-12 06:13:00,40.3,25.4,30.12,West,280,0.0,0.0,55,0.00,,---,0.00,VWS V14.00,2013-03-12 11:13:00,
2013-03-12 06:19:00,40.3,25.9,30.12,West,280,0.0,0.0,56,0.00,,---,0.00,VWS V14.00,2013-03-12 11:19:00,
2013-03-12 06:24:00,40.3,26.3,30.12,West,280,0.0,0.0,57,0.00,,---,0.00,VWS V14.00,2013-03-12 11:24:00,
2013-03-12 06:29:00,40.1,26.1,30.13,West,280,0.0,0.0,57,0.00,,---,0.00,VWS V14.00,2013-03-12 11:29:00,
2013-03-12 06:34:00,40.0,26.0,30.13,West,280,0.0,0.0,57,0.00,,---,0.00,VWS V14.00,2013-03-12 11:34:00,
2013-03-12 06:40:00,40.0,26.4,30.13,West,280,0.0,0.0,58,0.00,,---,0.00,VWS V14.00,2013-03-12 11:40:00,
2013-03-12 06:45:00,39.8,26.7,30.13,West,280,0.0,0.0,59,0.00,,---,0.00,VWS V14.00,2013-03-12 11:45:00,
2013-03-12 06:51:00,39.7,26.6,30.13,West,280,0.0,0.0,59,0.00,,---,0.00,VWS V14.00,2013-03-12 11:51:00,
2013-03-12 06:56:00,39.6,26.5,30.14,West,280,0.0,0.0,59,0.00,,---,0.00,VWS V14.00,2013-03-12 11:56:00,
2013-03-12 07:02:00,39.4,26.3,30.14,West,280,0.0,0.0,59,0.00,,---,0.00,VWS V14.00,2013-03-12 12:02:00,
2013-03-12 07:07:00,39.3,27.0,30.14,West,280,0.0,0.0,61,0.00,,---,0.00,VWS V14.00,2013-03-12 12:07:00,
2013-03-12 07:13:00,39.5,29.5,30.14,West,280,0.0,0.0,67,0.00,,---,0.00,VWS V14.00,2013-03-12 12:13:00,
2013-03-12 07:18:00,39.9,29.5,30.14,West,280,0.0,0.0,66,0.00,,---,0.00,VWS V14.00,2013-03-12 12:18:00,
2013-03-12 07:24:00,40.4,28.8,30.14,West,280,0.0,0.0,63,0.00,,---,0.00,VWS V14.00,2013-03-12 12:24:00,
2013-03-12 07:29:00,40.6,28.6,30.14,West,280,0.0,0.0,62,0.00,,---,0.00,VWS V14.00,2013-03-12 12:29:00,
2013-03-12 07:34:00,40.6,28.2,30.14,West,280,0.0,0.0,61,0.00,,---,0.00,VWS V14.00,2013-03-12 12:34:00,
2013-03-12 07:40:00,40.5,28.1,30.16,West,280,0.0,0.0,61,0.00,,---,0.00,VWS V14.00,2013-03-12 12:40:00,
2013-03-12 07:46:00,40.2,28.6,30.16,West,280,0.0,0.0,63,0.00,,---,0.00,VWS V14.00,2013-03-12 12:46:00,
2013-03-12 07:52:00,40.2,28.6,30.16,West,280,0.0,0.0,63,0.00,,---,0.00,VWS V14.00,2013-03-12 12:52:00,
2013-03-12 07:58:00,40.1,28.9,30.16,West,280,0.0,0.0,64,0.00,,---,0.00,VWS V14.00,2013-03-12 12:58:00,
2013-03-12 08:04:00,40.0,29.2,30.16,West,280,0.0,0.0,65,0.00,,---,0.00,VWS V14.00,2013-03-12 13:04:00,
2013-03-12 08:10:00,39.9,29.1,30.17,West,280,2.0,2.0,65,0.00,,---,0.00,VWS V14.00,2013-03-12 13:10:00,
2013-03-12 08:16:00,39.9,29.1,30.17,West,280,0.0,0.0,65,0.00,,---,0.00,VWS V14.00,2013-03-12 13:16:00,
2013-03-12 08:21:00,40.0,29.2,30.17,West,280,1.0,2.0,65,0.00,,---,0.00,VWS V14.00,2013-03-12 13:21:00,
2013-03-12 08:27:00,40.0,29.2,30.17,West,279,1.0,4.0,65,0.00,,---,0.00,VWS V14.00,2013-03-12 13:27:00,
2013-03-12 08:33:00,40.1,28.9,30.17,West,279,0.0,0.0,64,0.00,,---,0.00,VWS V14.00,2013-03-12 13:33:00,
2013-03-12 08:38:00,40.3,29.1,30.17,West,279,0.0,0.0,64,0.00,,---,0.00,VWS V14.00,2013-03-12 13:38:00,
2013-03-12 08:43:00,40.7,29.5,30.18,West,279,0.0,0.0,64,0.00,,---,0.00,VWS V14.00,2013-03-12 13:43:00,
2013-03-12 08:48:00,40.8,29.6,30.18,West,279,0.0,0.0,64,0.00,,---,0.00,VWS V14.00,2013-03-12 13:48:00,
2013-03-12 08:54:00,40.9,29.7,30.18,West,279,2.0,2.0,64,0.00,,---,0.00,VWS V14.00,2013-03-12 13:54:00,
2013-03-12 08:59:00,41.0,29.8,30.19,West,279,0.0,0.0,64,0.00,,---,0.00,VWS V14.00,2013-03-12 13:59:00,
2013-03-12 09:05:00,41.1,30.6,30.19,West,280,0.0,0.0,66,0.00,,---,0.00,VWS V14.00,2013-03-12 14:05:00,
2013-03-12 09:10:00,41.4,30.9,30.20,West,279,0.0,0.0,66,0.00,,---,0.00,VWS V14.00,2013-03-12 14:10:00,
2013-03-12 09:15:00,41.8,31.7,30.20,West,279,0.0,0.0,67,0.00,,---,0.00,VWS V14.00,2013-03-12 14:15:00,
2013-03-12 09:20:00,42.6,33.2,30.20,NNE,30,0.0,3.0,69,0.00,,---,0.00,VWS V14.00,2013-03-12 14:20:00,
2013-03-12 09:25:00,43.4,33.2,30.20,NNE,25,2.0,2.0,67,0.00,,---,0.00,VWS V14.00,2013-03-12 14:25:00,
2013-03-12 09:31:00,44.0,34.1,30.20,NNE,25,0.0,0.0,68,0.00,,---,0.00,VWS V14.00,2013-03-12 14:31:00,
2013-03-12 09:36:00,44.4,34.9,30.20,NNE,25,0.0,0.0,69,0.00,,---,0.00,VWS V14.00,2013-03-12 14:36:00,
2013-03-12 09:41:00,44.9,35.0,30.20,NNE,25,0.0,0.0,68,0.00,,---,0.00,VWS V14.00,2013-03-12 14:41:00,
2013-03-12 09:46:00,45.3,36.1,30.20,NNE,25,0.0,0.0,70,0.00,,---,0.00,VWS V14.00,2013-03-12 14:46:00,
2013-03-12 09:52:00,45.9,36.7,30.20,NNE,25,0.0,0.0,70,0.00,,---,0.00,VWS V14.00,2013-03-12 14:52:00,
2013-03-12 09:58:00,46.7,37.1,30.20,NNE,18,2.0,5.0,69,0.00,,---,0.00,VWS V14.00,2013-03-12 14:58:00,
2013-03-12 10:03:00,47.2,37.6,30.20,NE,34,4.0,5.0,69,0.00,,---,0.00,VWS V14.00,2013-03-12 15:03:00,
2013-03-12 10:08:00,47.6,37.6,30.20,NNE,13,2.0,7.0,68,0.00,,---,0.00,VWS V14.00,2013-03-12 15:08:00,
2013-03-12 10:13:00,47.8,37.4,30.20,NNE,25,0.0,6.0,67,0.00,,---,0.00,VWS V14.00,2013-03-12 15:13:00,
2013-03-12 10:18:00,48.5,37.7,30.20,NNE,18,2.0,7.0,66,0.00,,---,0.00,VWS V14.00,2013-03-12 15:18:00,
2013-03-12 10:24:00,48.9,36.9,30.20,NNE,16,3.0,7.0,63,0.00,,---,0.00,VWS V14.00,2013-03-12 15:24:00,
2013-03-12 10:30:00,49.4,36.9,30.20,NNE,18,0.0,0.0,62,0.00,,---,0.00,VWS V14.00,2013-03-12 15:30:00,
2013-03-12 10:36:00,49.9,36.2,30.20,NNE,20,5.0,5.0,59,0.00,,---,0.00,VWS V14.00,2013-03-12 15:36:00,
2013-03-12 10:41:00,50.2,35.1,30.22,NE,39,0.0,0.0,56,0.00,,---,0.00,VWS V14.00,2013-03-12 15:41:00,
2013-03-12 10:46:00,50.7,34.7,30.22,NNE,23,1.0,5.0,54,0.00,,---,0.00,VWS V14.00,2013-03-12 15:46:00,
2013-03-12 10:52:00,50.6,34.1,30.22,NE,37,2.0,5.0,53,0.00,,---,0.00,VWS V14.00,2013-03-12 15:52:00,
2013-03-12 10:58:00,50.6,32.7,30.22,NNW,340,1.0,9.0,50,0.00,,---,0.00,VWS V14.00,2013-03-12 15:58:00,
2013-03-12 11:03:00,50.8,32.3,30.22,NNE,12,5.0,6.0,49,0.00,,---,0.00,VWS V14.00,2013-03-12 16:03:00,
2013-03-12 11:08:00,51.0,31.0,30.22,NNE,30,3.0,5.0,46,0.00,,---,0.00,VWS V14.00,2013-03-12 16:08:00,
2013-03-12 11:13:00,52.1,30.3,30.22,NNE,31,0.0,3.0,43,0.00,,---,0.00,VWS V14.00,2013-03-12 16:13:00,
2013-03-12 11:18:00,52.2,29.2,30.22,NE,39,1.0,5.0,41,0.00,,---,0.00,VWS V14.00,2013-03-12 16:18:00,
2013-03-12 11:24:00,51.9,30.1,30.22,NE,35,3.0,5.0,43,0.00,,---,0.00,VWS V14.00,2013-03-12 16:24:00,
2013-03-12 11:29:00,51.7,31.1,30.22,North,1,8.0,8.0,45,0.00,,---,0.00,VWS V14.00,2013-03-12 16:29:00,
2013-03-12 11:35:00,52.2,31.5,30.22,NNE,33,0.0,0.0,45,0.00,,---,0.00,VWS V14.00,2013-03-12 16:35:00,
2013-03-12 11:42:00,52.6,33.0,30.23,NNE,30,3.0,10.0,47,0.00,,---,0.00,VWS V14.00,2013-03-12 16:42:00,
2013-03-12 11:47:00,53.5,33.8,30.23,NNE,20,0.0,4.0,47,0.00,,---,0.00,VWS V14.00,2013-03-12 16:47:00,
2013-03-12 11:52:00,53.2,33.5,30.23,NNE,16,0.0,6.0,47,0.00,,---,0.00,VWS V14.00,2013-03-12 16:52:00,
2013-03-12 11:58:00,53.9,35.2,30.23,NNE,20,2.0,3.0,49,0.00,,---,0.00,VWS V14.00,2013-03-12 16:58:00,
2013-03-12 12:04:00,54.1,34.9,30.23,NE,35,0.0,5.0,48,0.00,,---,0.00,VWS V14.00,2013-03-12 17:04:00,
2013-03-12 12:10:00,53.6,35.9,30.23,North,10,0.0,7.0,51,0.00,,---,0.00,VWS V14.00,2013-03-12 17:10:00,
2013-03-12 12:16:00,54.4,36.7,30.23,NNE,15,0.0,5.0,51,0.00,,---,0.00,VWS V14.00,2013-03-12 17:16:00,
2013-03-12 12:21:00,54.5,36.8,30.23,NNE,15,3.0,6.0,51,0.00,,---,0.00,VWS V14.00,2013-03-12 17:21:00,
2013-03-12 12:26:00,54.8,37.0,30.23,NNE,15,8.0,8.0,51,0.00,,---,0.00,VWS V14.00,2013-03-12 17:26:00,
2013-03-12 12:31:00,55.2,36.9,30.23,North,1,0.0,0.0,50,0.00,,---,0.00,VWS V14.00,2013-03-12 17:31:00,
2013-03-12 12:36:00,55.3,36.0,30.23,North,359,0.0,0.0,48,0.00,,---,0.00,VWS V14.00,2013-03-12 17:36:00,
2013-03-12 12:42:00,55.0,36.2,30.22,North,10,7.0,9.0,49,0.00,,---,0.00,VWS V14.00,2013-03-12 17:42:00,
2013-03-12 12:47:00,54.6,35.3,30.22,NNE,23,8.0,9.0,48,0.00,,---,0.00,VWS V14.00,2013-03-12 17:47:00,
2013-03-12 12:53:00,55.4,35.0,30.22,North,1,7.0,9.0,46,0.00,,---,0.00,VWS V14.00,2013-03-12 17:53:00,
2013-03-12 12:58:00,55.4,33.9,30.23,NE,47,1.0,6.0,44,0.00,,---,0.00,VWS V14.00,2013-03-12 17:58:00,
2013-03-12 13:03:00,55.1,33.6,30.23,NNE,30,4.0,13.0,44,0.00,,---,0.00,VWS V14.00,2013-03-12 18:03:00,
2013-03-12 13:09:00,54.9,34.0,30.23,NE,49,5.0,5.0,45,0.00,,---,0.00,VWS V14.00,2013-03-12 18:09:00,
2013-03-12 13:14:00,55.5,32.8,30.22,NNE,33,0.0,5.0,42,0.00,,---,0.00,VWS V14.00,2013-03-12 18:14:00,
2013-03-12 13:19:00,57.1,33.6,30.22,NNE,27,6.0,10.0,41,0.00,,---,0.00,VWS V14.00,2013-03-12 18:19:00,
2013-03-12 13:25:00,56.9,34.7,30.22,NNE,15,0.0,0.0,43,0.00,,---,0.00,VWS V14.00,2013-03-12 18:25:00,
2013-03-12 13:30:00,56.7,32.7,30.22,NNE,12,1.0,4.0,40,0.00,,---,0.00,VWS V14.00,2013-03-12 18:30:00,
2013-03-12 13:36:00,57.3,32.6,30.22,NNE,20,0.0,6.0,39,0.00,,---,0.00,VWS V14.00,2013-03-12 18:36:00,
2013-03-12 13:42:00,57.3,32.6,30.22,North,1,0.0,7.0,39,0.00,,---,0.00,VWS V14.00,2013-03-12 18:42:00,
2013-03-12 13:48:00,57.3,33.2,30.22,North,9,1.0,5.0,40,0.00,,---,0.00,VWS V14.00,2013-03-12 18:48:00,
2013-03-12 13:54:00,57.7,32.9,30.22,North,1,1.0,13.0,39,0.00,,---,0.00,VWS V14.00,2013-03-12 18:54:00,
2013-03-12 14:00:00,56.3,32.3,30.22,West,281,0.0,0.0,40,0.00,,---,0.00,VWS V14.00,2013-03-12 19:00:00,
2013-03-12 14:05:00,57.1,33.0,30.22,NNE,28,0.0,6.0,40,0.00,,---,0.00,VWS V14.00,2013-03-12 19:05:00,
2013-03-12 14:10:00,57.5,32.8,30.22,NNE,28,0.0,4.0,39,0.00,,---,0.00,VWS V14.00,2013-03-12 19:10:00,
2013-03-12 14:15:00,57.3,31.9,30.22,NNE,31,0.0,9.0,38,0.00,,---,0.00,VWS V14.00,2013-03-12 19:15:00,
2013-03-12 14:21:00,56.6,32.0,30.22,NE,38,3.0,5.0,39,0.00,,---,0.00,VWS V14.00,2013-03-12 19:21:00,
2013-03-12 14:26:00,57.1,33.0,30.21,NNE,25,0.0,1.0,40,0.00,,---,0.00,VWS V14.00,2013-03-12 19:26:00,
2013-03-12 14:31:00,57.5,32.8,30.21,North,10,0.0,1.0,39,0.00,,---,0.00,VWS V14.00,2013-03-12 19:31:00,
2013-03-12 14:36:00,58.7,33.8,30.21,WNW,299,0.0,3.0,39,0.00,,---,0.00,VWS V14.00,2013-03-12 19:36:00,
2013-03-12 14:41:00,58.9,32.7,30.20,North,4,0.0,0.0,37,0.00,,---,0.00,VWS V14.00,2013-03-12 19:41:00,
2013-03-12 14:46:00,58.2,32.1,30.20,NNE,27,0.0,7.0,37,0.00,,---,0.00,VWS V14.00,2013-03-12 19:46:00,
2013-03-12 14:51:00,57.7,32.9,30.20,North,4,0.0,1.0,39,0.00,,---,0.00,VWS V14.00,2013-03-12 19:51:00,
2013-03-12 14:57:00,59.9,32.2,30.20,North,7,0.0,2.0,35,0.00,,---,0.00,VWS V14.00,2013-03-12 19:57:00,
2013-03-12 15:03:00,59.1,32.9,30.20,NNE,27,0.0,9.0,37,0.00,,---,0.00,VWS V14.00,2013-03-12 20:03:00,
2013-03-12 15:09:00,58.5,33.0,30.20,NNE,21,0.0,7.0,38,0.00,,---,0.00,VWS V14.00,2013-03-12 20:09:00,
2013-03-12 15:14:00,59.1,32.9,30.20,North,6,0.0,0.0,37,0.00,,---,0.00,VWS V14.00,2013-03-12 20:14:00,
2013-03-12 15:20:00,59.0,32.8,30.20,ENE,68,0.0,2.0,37,0.00,,---,0.00,VWS V14.00,2013-03-12 20:20:00,
2013-03-12 15:25:00,59.0,32.1,30.20,NNE,13,0.0,3.0,36,0.00,,---,0.00,VWS V14.00,2013-03-12 20:25:00,
2013-03-12 15:31:00,58.5,32.3,30.20,NNE,30,0.0,2.0,37,0.00,,---,0.00,VWS V14.00,2013-03-12 20:31:00,
2013-03-12 15:37:00,58.0,31.2,30.20,WSW,246,0.0,5.0,36,0.00,,---,0.00,VWS V14.00,2013-03-12 20:37:00,
2013-03-12 15:42:00,58.3,32.2,30.20,NNE,25,0.0,0.0,37,0.00,,---,0.00,VWS V14.00,2013-03-12 20:42:00,
2013-03-12 15:47:00,60.5,32.7,30.20,NW,324,4.0,11.0,35,0.00,,---,0.00,VWS V14.00,2013-03-12 20:47:00,
2013-03-12 15:52:00,58.9,31.3,30.20,North,354,0.0,1.0,35,0.00,,---,0.00,VWS V14.00,2013-03-12 20:52:00,
2013-03-12 15:57:00,59.4,32.5,30.19,NNE,18,9.0,9.0,36,0.00,,---,0.00,VWS V14.00,2013-03-12 20:57:00,
2013-03-12 16:03:00,59.3,31.7,30.19,North,359,0.0,3.0,35,0.00,,---,0.00,VWS V14.00,2013-03-12 21:03:00,
2013-03-12 16:09:00,59.4,30.3,30.19,NNE,29,4.0,10.0,33,0.00,,---,0.00,VWS V14.00,2013-03-12 21:09:00,
2013-03-12 16:15:00,59.8,29.9,30.19,North,10,0.0,0.0,32,0.00,,---,0.00,VWS V14.00,2013-03-12 21:15:00,
2013-03-12 16:20:00,60.1,29.4,30.19,North,353,0.0,4.0,31,0.00,,---,0.00,VWS V14.00,2013-03-12 21:20:00,
2013-03-12 16:26:00,60.2,29.5,30.19,WNW,295,0.0,4.0,31,0.00,,---,0.00,VWS V14.00,2013-03-12 21:26:00,
2013-03-12 16:31:00,60.3,29.6,30.19,North,0,0.0,5.0,31,0.00,,---,0.00,VWS V14.00,2013-03-12 21:31:00,
2013-03-12 16:37:00,60.1,28.6,30.19,NNW,343,3.0,9.0,30,0.00,,---,0.00,VWS V14.00,2013-03-12 21:37:00,
2013-03-12 16:42:00,59.4,27.2,30.19,North,3,0.0,9.0,29,0.00,,---,0.00,VWS V14.00,2013-03-12 21:42:00,
2013-03-12 16:48:00,59.3,26.2,30.19,NW,318,3.0,3.0,28,0.00,,---,0.00,VWS V14.00,2013-03-12 21:48:00,
2013-03-12 16:53:00,59.6,27.3,30.19,NNW,327,0.0,0.0,29,0.00,,---,0.00,VWS V14.00,2013-03-12 21:53:00,
2013-03-12 16:58:00,59.5,27.2,30.19,WNW,301,0.0,2.0,29,0.00,,---,0.00,VWS V14.00,2013-03-12 21:58:00,
2013-03-12 17:03:00,59.3,27.1,30.19,NNW,328,2.0,2.0,29,0.00,,---,0.00,VWS V14.00,2013-03-12 22:03:00,
2013-03-12 17:09:00,59.2,27.0,30.19,NNE,12,0.0,2.0,29,0.00,,---,0.00,VWS V14.00,2013-03-12 22:09:00,
2013-03-12 17:14:00,60.0,27.7,30.19,North,1,0.0,9.0,29,0.00,,---,0.00,VWS V14.00,2013-03-12 22:14:00,
2013-03-12 17:19:00,60.4,27.2,30.19,NNE,15,0.0,1.0,28,0.00,,---,0.00,VWS V14.00,2013-03-12 22:19:00,
2013-03-12 17:25:00,60.7,27.4,30.19,NW,324,2.0,5.0,28,0.00,,---,0.00,VWS V14.00,2013-03-12 22:25:00,
2013-03-12 17:30:00,60.3,27.1,30.19,NW,317,0.0,1.0,28,0.00,,---,0.00,VWS V14.00,2013-03-12 22:30:00,
2013-03-12 17:35:00,60.0,26.8,30.19,NNW,330,0.0,0.0,28,0.00,,---,0.00,VWS V14.00,2013-03-12 22:35:00,
2013-03-12 17:41:00,60.3,27.1,30.19,NW,317,0.0,1.0,28,0.00,,---,0.00,VWS V14.00,2013-03-12 22:41:00,
2013-03-12 17:46:00,60.0,26.0,30.19,NNE,22,1.0,10.0,27,0.00,,---,0.00,VWS V14.00,2013-03-12 22:46:00,
2013-03-12 17:52:00,59.4,27.2,30.19,NNW,333,1.0,8.0,29,0.00,,---,0.00,VWS V14.00,2013-03-12 22:52:00,
2013-03-12 17:58:00,58.9,25.9,30.19,NNW,330,0.0,1.0,28,0.00,,---,0.00,VWS V14.00,2013-03-12 22:58:00,
2013-03-12 18:03:00,59.1,26.9,30.19,North,2,0.0,2.0,29,0.00,,---,0.00,VWS V14.00,2013-03-12 23:03:00,
2013-03-12 18:09:00,58.9,25.9,30.19,NW,317,0.0,5.0,28,0.00,,---,0.00,VWS V14.00,2013-03-12 23:09:00,
2013-03-12 18:15:00,59.1,26.0,30.19,WNW,300,0.0,5.0,28,0.00,,---,0.00,VWS V14.00,2013-03-12 23:15:00,
2013-03-12 18:20:00,58.8,25.8,30.19,NNE,12,0.0,3.0,28,0.00,,---,0.00,VWS V14.00,2013-03-12 23:20:00,
2013-03-12 18:26:00,58.6,26.5,30.20,North,1,11.0,14.0,29,0.00,,---,0.00,VWS V14.00,2013-03-12 23:26:00,
2013-03-12 18:31:00,58.3,27.0,30.20,NNW,342,0.0,6.0,30,0.00,,---,0.00,VWS V14.00,2013-03-12 23:31:00,
2013-03-12 18:37:00,58.3,27.8,30.20,NW,324,0.0,1.0,31,0.00,,---,0.00,VWS V14.00,2013-03-12 23:37:00,
2013-03-12 18:42:00,58.2,27.7,30.20,NNW,348,0.0,9.0,31,0.00,,---,0.00,VWS V14.00,2013-03-12 23:42:00,
2013-03-12 18:47:00,58.0,27.6,30.20,NNW,329,0.0,1.0,31,0.00,,---,0.00,VWS V14.00,2013-03-12 23:47:00,
2013-03-12 18:53:00,57.5,26.3,30.20,ENE,58,3.0,11.0,30,0.00,,---,0.00,VWS V14.00,2013-03-12 23:53:00,
2013-03-12 18:58:00,57.1,26.8,30.21,NNE,12,7.0,7.0,31,0.00,,---,0.00,VWS V14.00,2013-03-12 23:58:00,
2013-03-12 19:03:00,56.7,25.6,30.21,North,1,0.0,9.0,30,0.00,,---,0.00,VWS V14.00,2013-03-13 00:03:00,
2013-03-12 19:08:00,56.3,25.3,30.21,NNE,15,7.0,13.0,30,0.00,,---,0.00,VWS V14.00,2013-03-13 00:08:00,
2013-03-12 19:13:00,56.0,25.8,30.22,NNW,338,0.0,5.0,31,0.00,,---,0.00,VWS V14.00,2013-03-13 00:13:00,
2013-03-12 19:19:00,55.7,25.5,30.22,North,9,0.0,9.0,31,0.00,,---,0.00,VWS V14.00,2013-03-13 00:19:00,
2013-03-12 19:24:00,55.5,25.4,30.22,NE,39,0.0,8.0,31,0.00,,---,0.00,VWS V14.00,2013-03-13 00:24:00,
2013-03-12 19:30:00,55.2,25.9,30.22,NNE,29,0.0,6.0,32,0.00,,---,0.00,VWS V14.00,2013-03-13 00:30:00,
2013-03-12 19:35:00,55.0,25.7,30.22,NNE,25,9.0,9.0,32,0.00,,---,0.00,VWS V14.00,2013-03-13 00:35:00,
2013-03-12 19:40:00,54.8,25.5,30.23,NNE,13,2.0,6.0,32,0.00,,---,0.00,VWS V14.00,2013-03-13 00:40:00,
2013-03-12 19:45:00,54.5,25.3,30.23,NNE,23,3.0,6.0,32,0.00,,---,0.00,VWS V14.00,2013-03-13 00:45:00,
2013-03-12 19:50:00,54.3,25.8,30.23,North,354,0.0,6.0,33,0.00,,---,0.00,VWS V14.00,2013-03-13 00:50:00,
2013-03-12 19:55:00,54.1,25.6,30.24,NNE,23,0.0,1.0,33,0.00,,---,0.00,VWS V14.00,2013-03-13 00:55:00,
2013-03-12 20:00:00,53.9,25.5,30.24,North,0,0.0,2.0,33,0.00,,---,0.00,VWS V14.00,2013-03-13 01:00:00,
2013-03-12 20:06:00,53.8,26.1,30.24,North,359,0.0,5.0,34,0.00,,---,0.00,VWS V14.00,2013-03-13 01:06:00,
2013-03-12 20:12:00,53.6,25.9,30.25,North,6,6.0,6.0,34,0.00,,---,0.00,VWS V14.00,2013-03-13 01:12:00,
2013-03-12 20:18:00,53.3,26.4,30.25,North,351,0.0,2.0,35,0.00,,---,0.00,VWS V14.00,2013-03-13 01:18:00,
2013-03-12 20:23:00,53.0,26.1,30.25,North,2,0.0,7.0,35,0.00,,---,0.00,VWS V14.00,2013-03-13 01:23:00,
2013-03-12 20:29:00,52.8,26.6,30.25,NNE,30,0.0,2.0,36,0.00,,---,0.00,VWS V14.00,2013-03-13 01:29:00,
2013-03-12 20:34:00,52.6,26.4,30.25,North,8,2.0,12.0,36,0.00,,---,0.00,VWS V14.00,2013-03-13 01:34:00,
2013-03-12 20:40:00,52.4,26.2,30.27,North,11,4.0,13.0,36,0.00,,---,0.00,VWS V14.00,2013-03-13 01:40:00,
2013-03-12 20:45:00,52.2,26.7,30.27,ENE,58,0.0,7.0,37,0.00,,---,0.00,VWS V14.00,2013-03-13 01:45:00,
2013-03-12 20:50:00,51.8,26.4,30.27,North,8,9.0,12.0,37,0.00,,---,0.00,VWS V14.00,2013-03-13 01:50:00,
2013-03-12 20:56:00,51.4,26.7,30.27,North,0,3.0,3.0,38,0.00,,---,0.00,VWS V14.00,2013-03-13 01:56:00,
2013-03-12 21:02:00,51.0,26.9,30.27,North,9,1.0,7.0,39,0.00,,---,0.00,VWS V14.00,2013-03-13 02:02:00,
2013-03-12 21:08:00,50.7,26.7,30.27,NE,47,3.0,4.0,39,0.00,,---,0.00,VWS V14.00,2013-03-13 02:08:00,
2013-03-12 21:13:00,50.4,27.0,30.28,NNE,24,0.0,3.0,40,0.00,,---,0.00,VWS V14.00,2013-03-13 02:13:00,
2013-03-12 21:18:00,50.1,26.7,30.28,North,1,0.0,4.0,40,0.00,,---,0.00,VWS V14.00,2013-03-13 02:18:00,
2013-03-12 21:23:00,50.0,26.6,30.28,North,4,0.0,0.0,40,0.00,,---,0.00,VWS V14.00,2013-03-13 02:23:00,
2013-03-12 21:29:00,49.7,27.0,30.28,NE,38,0.0,0.0,41,0.00,,---,0.00,VWS V14.00,2013-03-13 02:29:00,
2013-03-12 21:34:00,49.5,26.8,30.28,NNE,32,0.0,0.0,41,0.00,,---,0.00,VWS V14.00,2013-03-13 02:34:00,
2013-03-12 21:39:00,49.3,26.6,30.28,NNE,32,0.0,5.0,41,0.00,,---,0.00,VWS V14.00,2013-03-13 02:39:00,
2013-03-12 21:44:00,49.1,27.0,30.28,NNE,32,0.0,0.0,42,0.00,,---,0.00,VWS V14.00,2013-03-13 02:44:00,
2013-03-12 21:50:00,48.8,27.3,30.28,NE,34,0.0,0.0,43,0.00,,---,0.00,VWS V14.00,2013-03-13 02:50:00,
2013-03-12 21:51:00,45.8,25.7,30.32,NE,46,0.0,0.0,45,0.00,,---,0.00,VWS V14.00,2013-03-13 02:51:00,
2013-03-12 21:52:00,45.7,25.6,30.32,NE,46,0.0,0.0,45,0.00,,---,0.00,VWS V14.00,2013-03-13 02:52:00,
2013-03-12 21:53:00,45.7,25.6,30.32,NE,34,0.0,2.0,45,0.00,,---,0.00,VWS V14.00,2013-03-13 02:53:00,
2013-03-12 21:54:00,45.7,25.6,30.32,NNE,30,3.0,3.0,45,0.00,,---,0.00,VWS V14.00,2013-03-13 02:54:00,
2013-03-12 21:55:00,48.6,27.1,30.30,NE,51,9.0,9.0,43,0.00,,---,0.00,VWS V14.00,2013-03-13 02:55:00,
2013-03-12 21:56:00,45.6,25.5,30.32,NNE,31,0.0,0.0,45,0.00,,---,0.00,VWS V14.00,2013-03-13 02:56:00,
2013-03-12 21:57:00,45.6,25.5,30.32,NE,46,0.0,6.0,45,0.00,,---,0.00,VWS V14.00,2013-03-13 02:57:00,
2013-03-12 21:58:00,45.5,25.4,30.32,NE,41,0.0,6.0,45,0.00,,---,0.00,VWS V14.00,2013-03-13 02:58:00,
2013-03-12 21:59:00,45.5,25.4,30.32,North,7,7.0,7.0,45,0.00,,---,0.00,VWS V14.00,2013-03-13 02:59:00,
2013-03-12 22:00:00,48.5,27.0,30.30,NE,36,7.0,9.0,43,0.00,,---,0.00,VWS V14.00,2013-03-13 03:00:00,
2013-03-12 22:01:00,45.5,25.4,30.32,North,11,0.0,0.0,45,0.00,,---,0.00,VWS V14.00,2013-03-13 03:01:00,
2013-03-12 22:02:00,45.5,25.4,30.32,North,9,3.0,3.0,45,0.00,,---,0.00,VWS V14.00,2013-03-13 03:02:00,
2013-03-12 22:03:00,45.5,25.4,30.32,NE,53,5.0,5.0,45,0.00,,---,0.00,VWS V14.00,2013-03-13 03:03:00,
2013-03-12 22:04:00,45.5,25.4,30.32,NNE,15,0.0,6.0,45,0.00,,---,0.00,VWS V14.00,2013-03-13 03:04:00,
2013-03-12 22:05:00,45.5,25.4,30.32,NNE,13,0.0,1.0,45,0.00,,---,0.00,VWS V14.00,2013-03-13 03:05:00,
2013-03-12 22:06:00,48.3,26.9,30.30,NE,44,0.0,5.0,43,0.00,,---,0.00,VWS V14.00,2013-03-13 03:06:00,
2013-03-12 22:07:00,45.4,25.3,30.32,North,3,0.0,0.0,45,0.00,,---,0.00,VWS V14.00,2013-03-13 03:07:00,
2013-03-12 22:08:00,45.4,25.3,30.32,North,3,0.0,0.0,45,0.00,,---,0.00,VWS V14.00,2013-03-13 03:08:00,
2013-03-12 22:09:00,45.4,25.3,30.32,North,3,0.0,0.0,45,0.00,,---,0.00,VWS V14.00,2013-03-13 03:09:00,
2013-03-12 22:10:00,45.3,25.2,30.32,North,4,0.0,0.0,45,0.00,,---,0.00,VWS V14.00,2013-03-13 03:10:00,
2013-03-12 22:11:00,48.0,26.6,30.30,NNE,23,0.0,10.0,43,0.00,,---,0.00,VWS V14.00,2013-03-13 03:11:00,
2013-03-12 22:12:00,45.2,25.1,30.32,North,5,0.0,1.0,45,0.00,,---,0.00,VWS V14.00,2013-03-13 03:12:00,
2013-03-12 22:13:00,45.2,25.1,30.32,NE,44,0.0,5.0,45,0.00,,---,0.00,VWS V14.00,2013-03-13 03:13:00,
2013-03-12 22:14:00,45.1,25.0,30.32,North,6,0.0,6.0,45,0.00,,---,0.00,VWS V14.00,2013-03-13 03:14:00,
2013-03-12 22:15:00,45.1,25.0,30.32,NNE,22,0.0,2.0,45,0.00,,---,0.00,VWS V14.00,2013-03-13 03:15:00,
2013-03-12 22:16:00,47.8,26.4,30.30,NE,36,0.0,0.0,43,0.00,,---,0.00,VWS V14.00,2013-03-13 03:16:00,
2013-03-12 22:17:00,45.1,25.0,30.32,NNE,23,0.0,0.0,45,0.00,,---,0.00,VWS V14.00,2013-03-13 03:17:00,
2013-03-12 22:18:00,45.1,25.0,30.32,NNE,23,0.0,2.0,45,0.00,,---,0.00,VWS V14.00,2013-03-13 03:18:00,
2013-03-12 22:19:00,45.0,25.0,30.32,NNE,23,0.0,0.0,45,0.00,,---,0.00,VWS V14.00,2013-03-13 03:19:00,
2013-03-12 22:20:00,45.0,25.0,30.32,NNE,30,0.0,1.0,45,0.00,,---,0.00,VWS V14.00,2013-03-13 03:20:00,
2013-03-12 22:21:00,44.9,24.9,30.32,NNE,21,0.0,4.0,45,0.00,,---,0.00,VWS V14.00,2013-03-13 03:21:00,
2013-03-12 22:22:00,47.4,26.6,30.30,North,1,1.0,5.0,44,0.00,,---,0.00,VWS V14.00,2013-03-13 03:22:00,
2013-03-12 22:23:00,44.9,24.9,30.32,NNE,21,0.0,1.0,45,0.00,,---,0.00,VWS V14.00,2013-03-13 03:23:00,
2013-03-12 22:24:00,44.9,24.9,30.32,NNE,21,0.0,0.0,45,0.00,,---,0.00,VWS V14.00,2013-03-13 03:24:00,
2013-03-12 22:25:00,44.8,25.3,30.32,NNE,22,0.0,0.0,46,0.00,,---,0.00,VWS V14.00,2013-03-13 03:25:00,
2013-03-12 22:26:00,44.8,25.3,30.32,NNE,21,0.0,0.0,46,0.00,,---,0.00,VWS V14.00,2013-03-13 03:26:00,
2013-03-12 22:27:00,47.2,26.4,30.31,NNE,32,0.0,0.0,44,0.00,,---,0.00,VWS V14.00,2013-03-13 03:27:00,
2013-03-12 22:28:00,44.7,25.2,30.32,NNE,21,0.0,0.0,46,0.00,,---,0.00,VWS V14.00,2013-03-13 03:28:00,
2013-03-12 22:29:00,44.7,25.2,30.32,NNE,22,0.0,0.0,46,0.00,,---,0.00,VWS V14.00,2013-03-13 03:29:00,
2013-03-12 22:30:00,44.6,25.1,30.33,NNE,21,0.0,0.0,46,0.00,,---,0.00,VWS V14.00,2013-03-13 03:30:00,
2013-03-12 22:31:00,44.5,25.0,30.33,NNE,21,0.0,0.0,46,0.00,,---,0.00,VWS V14.00,2013-03-13 03:31:00,
2013-03-12 22:32:00,47.0,26.2,30.31,North,1,0.0,4.0,44,0.00,,---,0.00,VWS V14.00,2013-03-13 03:32:00,
2013-03-12 22:33:00,44.4,24.9,30.33,NNE,21,0.0,0.0,46,0.00,,---,0.00,VWS V14.00,2013-03-13 03:33:00,
2013-03-12 22:34:00,44.4,24.9,30.33,NNE,21,0.0,0.0,46,0.00,,---,0.00,VWS V14.00,2013-03-13 03:34:00,
2013-03-12 22:35:00,44.3,24.8,30.33,NNE,21,0.0,0.0,46,0.00,,---,0.00,VWS V14.00,2013-03-13 03:35:00,
2013-03-12 22:36:00,44.3,24.8,30.33,NNE,21,0.0,0.0,46,0.00,,---,0.00,VWS V14.00,2013-03-13 03:36:00,
2013-03-12 22:37:00,46.7,26.5,30.31,NE,34,0.0,3.0,45,0.00,,---,0.00,VWS V14.00,2013-03-13 03:37:00,
2013-03-12 22:38:00,44.2,25.3,30.33,NNE,21,0.0,0.0,47,0.00,,---,0.00,VWS V14.00,2013-03-13 03:38:00,
2013-03-12 22:39:00,44.1,25.2,30.33,NNE,21,0.0,0.0,47,0.00,,---,0.00,VWS V14.00,2013-03-13 03:39:00,
2013-03-12 22:40:00,44.1,25.2,30.33,NNE,21,0.0,0.0,47,0.00,,---,0.00,VWS V14.00,2013-03-13 03:40:00,
2013-03-12 22:42:00,46.5,26.3,30.31,NE,54,0.0,5.0,45,0.00,,---,0.00,VWS V14.00,2013-03-13 03:42:00,
2013-03-12 22:44:00,43.9,25.0,30.33,NNE,21,0.0,0.0,47,0.00,,---,0.00,VWS V14.00,2013-03-13 03:44:00,
2013-03-12 22:46:00,43.8,24.9,30.33,NNE,21,0.0,0.0,47,0.00,,---,0.00,VWS V14.00,2013-03-13 03:46:00,
2013-03-12 22:47:00,43.8,24.9,30.33,NNE,21,0.0,0.0,47,0.00,,---,0.00,VWS V14.00,2013-03-13 03:47:00,
2013-03-12 22:48:00,46.4,26.8,30.31,NE,44,0.0,2.0,46,0.00,,---,0.00,VWS V14.00,2013-03-13 03:48:00,
2013-03-12 22:50:00,43.7,25.3,30.33,NNE,21,0.0,0.0,48,0.00,,---,0.00,VWS V14.00,2013-03-13 03:50:00,
2013-03-12 22:52:00,43.6,25.2,30.33,NNE,21,0.0,0.0,48,0.00,,---,0.00,VWS V14.00,2013-03-13 03:52:00,
2013-03-12 22:53:00,43.6,25.2,30.33,NNE,21,0.0,0.0,48,0.00,,---,0.00,VWS V14.00,2013-03-13 03:53:00,
2013-03-12 22:54:00,46.1,26.0,30.31,NE,49,0.0,5.0,45,0.00,,---,0.00,VWS V14.00,2013-03-13 03:54:00,
2013-03-12 22:55:00,43.5,25.1,30.33,NNE,21,0.0,0.0,48,0.00,,---,0.00,VWS V14.00,2013-03-13 03:55:00,
2013-03-12 22:56:00,43.5,25.1,30.33,NNE,21,0.0,0.0,48,0.00,,---,0.00,VWS V14.00,2013-03-13 03:56:00,
2013-03-12 22:57:00,43.5,25.1,30.33,NNE,21,0.0,0.0,48,0.00,,---,0.00,VWS V14.00,2013-03-13 03:57:00,
2013-03-12 22:58:00,43.4,25.0,30.33,NNE,21,0.0,0.0,48,0.00,,---,0.00,VWS V14.00,2013-03-13 03:58:00,
2013-03-12 22:59:00,45.8,25.7,30.32,NE,46,0.0,0.0,45,0.00,,---,0.00,VWS V14.00,2013-03-13 03:59:00,
2013-03-12 23:00:00,43.4,25.0,30.33,NNE,21,0.0,0.0,48,0.00,,---,0.00,VWS V14.00,2013-03-13 04:00:00,
2013-03-12 23:03:00,43.3,24.9,30.33,NNE,22,0.0,0.0,48,0.00,,---,0.00,VWS V14.00,2013-03-13 04:03:00,
2013-03-12 23:04:00,43.2,24.9,30.33,NNE,22,0.0,0.0,48,0.00,,---,0.00,VWS V14.00,2013-03-13 04:04:00,
2013-03-12 23:05:00,43.2,25.4,30.33,NNE,22,0.0,0.0,49,0.00,,---,0.00,VWS V14.00,2013-03-13 04:05:00,
2013-03-12 23:06:00,43.2,25.4,30.33,NNE,22,0.0,0.0,49,0.00,,---,0.00,VWS V14.00,2013-03-13 04:06:00,
2013-03-12 23:08:00,43.1,25.3,30.33,NNE,22,0.0,0.0,49,0.00,,---,0.00,VWS V14.00,2013-03-13 04:08:00,
2013-03-12 23:09:00,43.1,25.3,30.33,NNE,21,0.0,0.0,49,0.00,,---,0.00,VWS V14.00,2013-03-13 04:09:00,
2013-03-12 23:10:00,43.1,25.3,30.33,NNE,22,0.0,0.0,49,0.00,,---,0.00,VWS V14.00,2013-03-13 04:10:00,
2013-03-12 23:14:00,42.9,25.1,30.33,NNE,22,0.0,0.0,49,0.00,,---,0.00,VWS V14.00,2013-03-13 04:14:00,
2013-03-12 23:16:00,42.9,25.1,30.33,NNE,21,0.0,0.0,49,0.00,,---,0.00,VWS V14.00,2013-03-13 04:16:00,
2013-03-12 23:18:00,42.8,25.0,30.33,NNE,22,0.0,0.0,49,0.00,,---,0.00,VWS V14.00,2013-03-13 04:18:00,
2013-03-12 23:37:00,42.5,24.2,30.33,NNE,23,0.0,0.0,48,0.00,,---,0.00,VWS V14.00,2013-03-13 04:37:00,
2013-03-12 23:41:00,42.5,24.2,30.33,NNE,23,0.0,0.0,48,0.00,,---,0.00,VWS V14.00,2013-03-13 04:41:00,
2013-03-12 23:51:00,44.1,25.2,30.33,NNE,21,0.0,0.0,47,0.00,,---,0.00,VWS V14.00,2013-03-13 04:51:00,
2013-03-12 23:53:00,42.4,24.1,30.33,NNE,31,0.0,0.0,48,0.00,,---,0.00,VWS V14.00,2013-03-13 04:53:00,
2013-03-12 23:59:00,43.7,24.8,30.33,NNE,21,0.0,0.0,47,0.00,,---,0.00,VWS V14.00,2013-03-13 04:59:00,